createdAt,value
2023-03-04T00:00:55.486Z,4.00
2023-03-04T00:05:58.385Z,4.30
2023-03-04T00:11:03.888Z,4.40
2023-03-04T00:16:07.515Z,4.30
2023-03-04T00:21:10.455Z,4.20
2023-03-04T00:26:14.728Z,4.20
2023-03-04T00:31:19.428Z,4.30
2023-03-04T00:36:22.496Z,4.20
2023-03-04T00:41:26.742Z,4.20
2023-03-04T00:46:29.643Z,4.10
2023-03-04T00:51:32.545Z,3.90
2023-03-04T00:56:36.776Z,3.90
2023-03-04T01:01:39.709Z,3.90
2023-03-04T01:06:42.671Z,3.90
2023-03-04T01:11:46.975Z,3.90
2023-03-04T01:16:50.026Z,3.90
2023-03-04T01:21:52.992Z,3.90
2023-03-04T01:26:57.209Z,3.80
2023-03-04T01:32:00.143Z,3.60
2023-03-04T01:37:03.333Z,3.70
2023-03-04T01:42:14.574Z,3.70
2023-03-04T01:47:18.401Z,3.70
2023-03-04T01:52:21.407Z,3.70
2023-03-04T01:57:27.051Z,3.70
2023-03-04T02:02:29.950Z,3.50
2023-03-04T02:07:32.876Z,3.50
2023-03-04T02:12:38.596Z,3.50
2023-03-04T02:17:41.593Z,3.10
2023-03-04T02:22:50.289Z,3.20
2023-03-04T02:27:54.586Z,3.20
2023-03-04T02:32:59.274Z,3.20
2023-03-04T02:38:02.205Z,3.20
2023-03-04T02:43:06.577Z,3.20
2023-03-04T02:48:10.551Z,3.20
2023-03-04T02:53:13.891Z,3.20
2023-03-04T02:58:18.658Z,3.30
2023-03-04T03:03:23.234Z,3.10
2023-03-04T03:08:26.237Z,3.20
2023-03-04T03:13:32.150Z,3.00
2023-03-04T03:18:35.431Z,3.00
2023-03-04T03:23:38.473Z,3.00
2023-03-04T03:28:44.580Z,3.00
2023-03-04T03:33:47.852Z,2.90
2023-03-04T03:38:50.936Z,2.70
2023-03-04T03:43:55.190Z,2.80
2023-03-04T03:48:58.058Z,2.80
2023-03-04T03:54:00.955Z,2.90
2023-03-04T03:59:05.328Z,2.70
2023-03-04T04:04:08.325Z,2.70
2023-03-04T04:09:11.211Z,2.70
2023-03-04T04:14:16.003Z,2.60
2023-03-04T04:19:19.754Z,2.60
2023-03-04T04:24:22.631Z,2.40
2023-03-04T04:29:26.852Z,2.40
2023-03-04T04:34:29.799Z,2.40
2023-03-04T04:39:32.690Z,2.40
2023-03-04T04:44:39.043Z,2.40
2023-03-04T04:49:42.043Z,2.40
2023-03-04T04:54:53.164Z,2.40
2023-03-04T04:59:57.379Z,2.40
2023-03-04T05:05:00.253Z,2.30
2023-03-04T05:10:03.537Z,1.90
2023-03-04T05:15:08.970Z,1.70
2023-03-04T05:20:12.790Z,2.00
2023-03-04T05:25:15.738Z,1.90
2023-03-04T05:30:20.261Z,1.90
2023-03-04T05:35:23.174Z,2.00
2023-03-04T05:40:26.126Z,2.00
2023-03-04T05:45:30.703Z,2.10
2023-03-04T05:50:34.100Z,2.10
2023-03-04T05:55:37.042Z,2.00
2023-03-04T06:00:41.368Z,1.40
2023-03-04T06:05:44.379Z,0.90
2023-03-04T06:10:47.445Z,1.00
2023-03-04T06:15:55.558Z,0.90
2023-03-04T06:20:59.656Z,1.20
2023-03-04T06:26:02.937Z,1.40
2023-03-04T06:31:07.304Z,1.70
2023-03-04T06:36:10.328Z,1.70
2023-03-04T06:41:14.048Z,1.70
2023-03-04T06:46:18.338Z,1.70
2023-03-04T06:51:21.325Z,1.70
2023-03-04T06:56:24.338Z,1.80
2023-03-04T07:01:30.235Z,1.70
2023-03-04T07:06:33.160Z,2.40
2023-03-04T07:11:36.079Z,2.00
2023-03-04T07:16:40.465Z,1.90
2023-03-04T07:21:43.402Z,1.80
2023-03-04T07:26:46.449Z,1.90
2023-03-04T07:31:53.424Z,1.80
2023-03-04T07:36:56.678Z,2.00
2023-03-04T07:41:59.609Z,1.90
2023-03-04T07:47:03.939Z,1.80
2023-03-04T07:52:08.855Z,2.00
2023-03-04T07:57:11.986Z,2.00
2023-03-04T08:02:23.359Z,2.30
2023-03-04T08:07:26.642Z,3.30
2023-03-04T08:12:29.873Z,3.10
2023-03-04T08:17:34.347Z,3.00
2023-03-04T08:22:37.331Z,3.10
2023-03-04T08:27:40.202Z,3.20
2023-03-04T08:32:44.750Z,3.30
2023-03-04T08:37:47.693Z,3.40
2023-03-04T08:42:50.596Z,3.60
2023-03-04T08:47:55.003Z,3.90
2023-03-04T08:52:59.888Z,3.70
2023-03-04T08:58:02.805Z,3.50
2023-03-04T09:03:13.624Z,3.90
2023-03-04T09:08:17.705Z,4.00
2023-03-04T09:13:20.622Z,4.10
2023-03-04T09:18:26.993Z,4.10
2023-03-04T09:23:30.255Z,4.40
2023-03-04T09:28:33.178Z,4.20
2023-03-04T09:33:37.628Z,4.60
2023-03-04T09:38:41.444Z,4.40
2023-03-04T09:43:45.537Z,4.00
2023-03-04T09:48:52.701Z,4.10
2023-03-04T09:54:07.964Z,3.90
2023-03-04T09:59:23.493Z,4.00
2023-03-04T10:04:35.472Z,4.30
2023-03-04T10:09:47.638Z,4.10
2023-03-04T10:14:54.635Z,4.10
2023-03-04T10:20:03.548Z,4.00
2023-03-04T10:25:21.094Z,4.40
2023-03-04T10:30:33.776Z,4.30
2023-03-04T10:35:39.552Z,4.60
2023-03-04T10:40:45.793Z,4.60
2023-03-04T10:45:50.624Z,4.70
2023-03-04T10:50:55.314Z,4.70
2023-03-04T10:55:58.330Z,4.70
2023-03-04T11:01:17.640Z,4.80
2023-03-04T11:06:23.849Z,5.00
2023-03-04T11:11:34.672Z,5.10
2023-03-04T11:16:38.040Z,5.20
2023-03-04T11:21:42.816Z,5.20
2023-03-04T11:26:49.782Z,5.30
2023-03-04T11:31:56.894Z,5.40
2023-03-04T11:37:05.489Z,5.40
2023-03-04T11:42:18.298Z,5.40
2023-03-04T11:47:51.874Z,5.40
2023-03-04T11:53:26.650Z,5.70
2023-03-04T11:58:49.445Z,5.50
2023-03-04T12:04:30.295Z,5.60
2023-03-04T12:09:43.744Z,5.80
2023-03-04T12:14:53.026Z,5.70
2023-03-04T12:20:18.869Z,5.70
2023-03-04T12:25:42.452Z,5.50
2023-03-04T12:31:00.766Z,5.60
2023-03-04T12:36:13.381Z,5.80
2023-03-04T12:41:44.008Z,5.80
2023-03-04T12:47:21.096Z,5.90
2023-03-04T12:52:36.335Z,5.70
2023-03-04T12:57:41.564Z,5.90
2023-03-04T13:02:56.409Z,5.90
2023-03-04T13:08:09.188Z,5.80
2023-03-04T13:13:39.322Z,5.70
2023-03-04T13:18:42.265Z,5.90
2023-03-04T13:23:45.270Z,5.90
2023-03-04T13:29:09.572Z,5.80
2023-03-04T13:34:51.745Z,5.90
2023-03-04T13:40:30.494Z,5.70
2023-03-04T13:45:36.182Z,5.80
2023-03-04T13:50:43.237Z,5.70
2023-03-04T13:56:02.585Z,5.70
2023-03-04T14:01:07.301Z,5.60
2023-03-04T14:06:17.473Z,5.70
2023-03-04T14:11:28.121Z,5.60
2023-03-04T14:16:36.773Z,5.70
2023-03-04T14:21:46.980Z,5.70
2023-03-04T14:26:50.569Z,5.70
2023-03-04T14:31:54.806Z,5.70
2023-03-04T14:36:59.746Z,5.50
2023-03-04T14:42:10.510Z,5.50
2023-03-04T14:47:19.486Z,5.60
2023-03-04T14:52:39.967Z,5.50
2023-03-04T14:57:43.932Z,5.50
2023-03-04T15:02:50.823Z,5.60
2023-03-04T15:07:57.460Z,5.50
2023-03-04T15:13:02.303Z,5.70
2023-03-04T15:18:15.216Z,5.60
2023-03-04T15:23:19.533Z,5.70
2023-03-04T15:28:24.825Z,5.50
2023-03-04T15:33:27.835Z,5.40
2023-03-04T15:38:32.125Z,5.30
2023-03-04T15:43:35.020Z,5.40
2023-03-04T15:48:37.932Z,5.40
2023-03-04T15:53:44.732Z,5.10
2023-03-04T15:58:53.785Z,5.30
2023-03-04T16:03:56.797Z,5.10
2023-03-04T16:09:01.815Z,4.90
2023-03-04T16:14:10.573Z,4.90
2023-03-04T16:19:13.516Z,4.90
2023-03-04T16:24:19.851Z,4.80
2023-03-04T16:29:22.737Z,4.80
2023-03-04T16:34:25.659Z,4.80
2023-03-04T16:39:29.935Z,4.80
2023-03-04T16:44:32.989Z,4.70
2023-03-04T16:49:35.958Z,4.80
2023-03-04T16:54:40.638Z,4.80
2023-03-04T16:59:43.750Z,4.80
2023-03-04T17:04:48.020Z,4.80
2023-03-04T17:09:52.254Z,4.70
2023-03-04T17:14:55.138Z,4.60
2023-03-04T17:19:58.296Z,4.70
2023-03-04T17:25:03.715Z,4.60
2023-03-04T17:30:11.691Z,4.70
2023-03-04T17:35:14.664Z,4.60
2023-03-04T17:40:19.201Z,4.60
2023-03-04T17:45:22.101Z,4.70
2023-03-04T17:50:25.007Z,4.80
2023-03-04T17:55:29.378Z,5.10
2023-03-04T18:00:32.359Z,5.10
2023-03-04T18:05:35.276Z,6.10
2023-03-04T18:10:39.559Z,5.40
2023-03-04T18:15:42.586Z,5.30
2023-03-04T18:20:59.215Z,5.30
2023-03-04T18:26:04.402Z,5.10
2023-03-04T18:31:07.585Z,5.40
2023-03-04T18:36:16.484Z,5.50
2023-03-04T18:41:20.826Z,5.40
2023-03-04T18:46:31.079Z,5.40
2023-03-04T18:51:46.992Z,5.50
2023-03-04T18:56:55.509Z,5.70
2023-03-04T19:02:00.206Z,5.60
2023-03-04T19:07:03.159Z,5.80
2023-03-04T19:12:07.810Z,5.90
2023-03-04T19:17:11.082Z,5.70
2023-03-04T19:22:37.375Z,5.80
2023-03-04T19:27:42.004Z,5.90
2023-03-04T19:32:45.161Z,5.90
2023-03-04T19:37:48.221Z,5.90
2023-03-04T19:42:52.828Z,5.90
2023-03-04T19:47:57.268Z,5.90
2023-03-04T19:53:07.245Z,5.80
2023-03-04T19:58:11.937Z,5.80
2023-03-04T20:03:15.247Z,5.80
2023-03-04T20:08:20.358Z,5.90
2023-03-04T20:13:24.616Z,5.90
2023-03-04T20:18:27.592Z,6.00
2023-03-04T20:23:30.594Z,6.00
2023-03-04T20:28:35.131Z,6.00
2023-03-04T20:33:38.085Z,6.70
2023-03-04T20:38:41.114Z,6.40
2023-03-04T20:43:45.402Z,6.30
2023-03-04T20:48:48.318Z,6.20
2023-03-04T20:53:51.444Z,6.20
2023-03-04T20:58:56.867Z,6.10
2023-03-04T21:04:00.420Z,6.10
2023-03-04T21:09:05.461Z,6.00
2023-03-04T21:14:13.820Z,6.00
2023-03-04T21:19:18.693Z,6.00
2023-03-04T21:24:24.641Z,6.00
2023-03-04T21:29:29.047Z,5.90
2023-03-04T21:34:35.493Z,5.80
2023-03-04T21:39:38.509Z,5.80
2023-03-04T21:44:49.488Z,5.80
2023-03-04T21:49:53.672Z,5.90
2023-03-04T21:54:56.880Z,6.00
2023-03-04T22:00:01.105Z,6.00
2023-03-04T22:05:04.200Z,6.10
2023-03-04T22:10:08.270Z,6.10
2023-03-04T22:15:13.352Z,6.10
2023-03-04T22:20:17.306Z,6.10
2023-03-04T22:25:20.198Z,6.10
2023-03-04T22:30:24.565Z,6.20
2023-03-04T22:35:27.632Z,6.30
2023-03-04T22:40:30.850Z,6.30
2023-03-04T22:45:35.114Z,6.30
2023-03-04T22:50:38.047Z,6.20
2023-03-04T22:55:40.950Z,6.20
2023-03-04T23:00:45.176Z,6.20
2023-03-04T23:05:48.200Z,6.20
2023-03-04T23:10:51.082Z,6.20
2023-03-04T23:15:55.282Z,6.10
2023-03-04T23:20:58.207Z,6.10
2023-03-04T23:26:02.287Z,6.00
2023-03-04T23:31:06.787Z,6.00
2023-03-04T23:36:14.246Z,6.10
2023-03-04T23:41:20.489Z,6.00
2023-03-04T23:46:25.418Z,6.00
2023-03-04T23:51:30.264Z,6.00
2023-03-04T23:56:33.235Z,6.00
